Time;durP1;ratioP1;P1;durP2;ratioP2;P2;SDS_P1;SDS_P2;PMS_P1;PMS_P2;Temp;Humidity;BMP_temperature;BMP_pressure;BME280_temperature;BME280_humidity;BME280_pressure;Samples;Min_cycle;Max_cycle;Signal;HPM_P1;HPM_P2
2024/01/14 00:02:02;;;;;;;33.67;23.17;;;0.10;99.90;;;;;;5012288;28;20212;-63
2024/01/14 00:04:28;;;;;;;38.58;23.65;;;0.10;99.90;;;;;;5007275;28;20583;-62
2024/01/14 00:06:55;;;;;;;39.30;22.63;;;0.20;99.90;;;;;;5012343;28;20318;-62
2024/01/14 00:09:22;;;;;;;33.50;25.35;;;0.20;99.90;;;;;;5012401;28;20605;-63
2024/01/14 00:11:49;;;;;;;39.75;23.55;;;0.20;99.90;;;;;;5012217;28;20211;-63
2024/01/14 00:14:16;;;;;;;26.15;18.00;;;0.20;99.90;;;;;;5012407;28;20239;-63
2024/01/14 00:16:44;;;;;;;34.40;20.90;;;0.20;99.90;;;;;;5012705;28;20231;-63
2024/01/14 00:19:11;;;;;;;29.73;20.98;;;0.20;99.90;;;;;;5000978;28;20204;-63
2024/01/14 00:21:38;;;;;;;36.75;21.80;;;0.20;99.90;;;;;;5011956;28;20700;-63
2024/01/14 00:24:05;;;;;;;30.13;20.17;;;0.10;99.90;;;;;;5010779;28;20236;-62
2024/01/14 00:26:32;;;;;;;34.28;22.10;;;0.10;99.90;;;;;;5012681;28;20310;-63
2024/01/14 00:29:00;;;;;;;36.00;21.95;;;0.10;99.90;;;;;;5009647;28;20291;-62
2024/01/14 00:31:27;;;;;;;35.40;22.60;;;0.10;99.90;;;;;;5012055;28;20592;-63
2024/01/14 00:33:55;;;;;;;37.67;23.67;;;0.10;99.90;;;;;;5002595;28;20204;-63
2024/01/14 00:36:22;;;;;;;35.97;22.05;;;0.10;99.90;;;;;;5001154;28;20314;-63
2024/01/14 00:38:48;;;;;;;36.70;24.33;;;0.20;99.90;;;;;;5001987;28;20231;-63
2024/01/14 00:41:15;;;;;;;39.22;25.42;;;0.10;99.90;;;;;;5005366;28;20389;-63
2024/01/14 00:43:42;;;;;;;39.92;24.83;;;0.10;99.90;;;;;;5001837;28;20243;-63
2024/01/14 00:46:09;;;;;;;35.53;21.70;;;0.20;99.90;;;;;;5011243;28;20230;-63
2024/01/14 00:48:36;;;;;;;38.50;25.67;;;0.20;99.90;;;;;;5005083;28;20213;-62
2024/01/14 00:51:04;;;;;;;40.63;25.17;;;0.20;99.90;;;;;;5003949;28;20742;-63
2024/01/14 00:53:31;;;;;;;39.50;25.90;;;0.20;99.90;;;;;;5006318;28;20287;-63
2024/01/14 00:55:58;;;;;;;37.72;24.42;;;0.20;99.90;;;;;;5011612;28;20599;-62
2024/01/14 00:58:25;;;;;;;43.00;28.40;;;0.20;99.90;;;;;;5011996;28;20302;-63
2024/01/14 01:00:51;;;;;;;41.92;26.23;;;0.20;99.90;;;;;;5010846;28;20584;-62
2024/01/14 01:03:18;;;;;;;40.72;25.13;;;0.20;99.90;;;;;;5004870;28;20298;-62
2024/01/14 01:05:45;;;;;;;37.35;24.77;;;0.20;99.90;;;;;;5005732;28;20212;-63
2024/01/14 01:08:13;;;;;;;42.00;25.65;;;0.20;99.90;;;;;;5007887;28;20203;-63
2024/01/14 01:10:41;;;;;;;39.05;24.50;;;0.20;99.90;;;;;;5006973;28;20208;-63
2024/01/14 01:13:08;;;;;;;44.58;24.75;;;0.20;99.90;;;;;;5010170;28;20199;-63
2024/01/14 01:15:34;;;;;;;32.15;21.92;;;0.10;99.90;;;;;;5012033;28;20291;-63
2024/01/14 01:18:02;;;;;;;38.35;22.48;;;0.10;99.90;;;;;;5011528;28;20223;-63
2024/01/14 01:20:29;;;;;;;38.75;24.13;;;0.20;99.90;;;;;;5011513;28;20209;-62
2024/01/14 01:22:55;;;;;;;37.50;20.23;;;0.20;99.90;;;;;;5003209;28;20215;-63
2024/01/14 01:25:24;;;;;;;32.00;20.67;;;0.20;99.90;;;;;;5011303;28;20220;-63
2024/01/14 01:27:50;;;;;;;42.45;21.38;;;0.10;99.90;;;;;;5004566;28;20241;-62
2024/01/14 01:30:17;;;;;;;34.67;22.25;;;0.10;99.90;;;;;;5011598;28;20214;-62
2024/01/14 01:32:44;;;;;;;31.83;22.50;;;0.00;99.90;;;;;;5003179;28;20212;-62
2024/01/14 01:35:11;;;;;;;30.77;20.83;;;0.00;99.90;;;;;;5005193;28;20202;-62
2024/01/14 01:37:38;;;;;;;37.95;23.75;;;0.00;99.90;;;;;;5006694;28;20319;-62
2024/01/14 01:40:09;;;;;;;28.63;18.67;;;0.00;99.90;;;;;;5010464;28;20209;-62
2024/01/14 01:42:37;;;;;;;35.70;22.85;;;0.10;99.90;;;;;;5013519;28;20599;-62
2024/01/14 01:45:04;;;;;;;33.38;20.48;;;0.10;99.90;;;;;;5011007;28;20602;-62
2024/01/14 01:47:31;;;;;;;37.95;23.13;;;0.00;99.90;;;;;;5008820;28;20306;-62
2024/01/14 01:49:58;;;;;;;29.60;18.75;;;0.00;99.90;;;;;;4998583;28;20295;-62
2024/01/14 01:52:25;;;;;;;38.00;22.05;;;0.00;99.90;;;;;;5011806;28;20311;-62
2024/01/14 01:54:54;;;;;;;38.92;24.15;;;0.10;99.90;;;;;;5011321;28;20294;-62
2024/01/14 01:57:22;;;;;;;31.58;18.70;;;0.00;99.90;;;;;;5011324;28;20286;-62
2024/01/14 01:59:51;;;;;;;33.80;19.98;;;0.10;99.90;;;;;;5008977;28;20295;-62
2024/01/14 02:02:19;;;;;;;34.45;19.77;;;0.00;99.90;;;;;;5011035;28;20295;-62
2024/01/14 02:04:47;;;;;;;32.85;18.90;;;0.00;99.90;;;;;;5011360;28;20223;-62
2024/01/14 02:07:15;;;;;;;29.73;19.98;;;0.00;99.90;;;;;;5013259;28;20227;-65
2024/01/14 02:09:42;;;;;;;31.92;19.55;;;0.00;99.90;;;;;;5015297;28;20213;-63
2024/01/14 02:12:09;;;;;;;33.03;18.98;;;0.00;99.90;;;;;;5015369;28;20203;-62
2024/01/14 02:14:36;;;;;;;28.73;18.55;;;0.00;99.90;;;;;;5012267;28;20616;-63
2024/01/14 02:17:04;;;;;;;34.85;20.75;;;0.00;99.90;;;;;;5011228;28;20227;-62
2024/01/14 02:19:31;;;;;;;35.63;19.48;;;0.00;99.90;;;;;;5011523;28;20210;-63
2024/01/14 02:22:03;;;;;;;25.45;17.60;;;0.00;99.90;;;;;;5007185;28;20207;-62
2024/01/14 02:24:32;;;;;;;34.15;21.35;;;-0.10;99.90;;;;;;5014985;28;20223;-62
2024/01/14 02:26:59;;;;;;;31.73;18.83;;;0.00;99.90;;;;;;5014443;28;20598;-62
2024/01/14 02:29:28;;;;;;;25.98;15.45;;;0.00;99.90;;;;;;5006441;28;20212;-62
2024/01/14 02:31:55;;;;;;;33.20;20.92;;;0.00;99.90;;;;;;5008269;28;20211;-62
2024/01/14 02:34:22;;;;;;;35.63;18.48;;;0.00;99.90;;;;;;5001721;28;20292;-63
2024/01/14 02:36:49;;;;;;;30.95;18.80;;;0.00;99.90;;;;;;5011846;28;20582;-62
2024/01/14 02:39:17;;;;;;;33.13;18.75;;;-0.10;99.90;;;;;;5004279;28;20299;-61
2024/01/14 02:41:46;;;;;;;30.15;19.77;;;-0.10;99.90;;;;;;5011007;28;20208;-62
2024/01/14 02:44:13;;;;;;;31.70;22.23;;;-0.10;99.90;;;;;;5011092;28;20232;-62
2024/01/14 02:46:40;;;;;;;28.67;18.95;;;-0.20;99.90;;;;;;5008994;28;20236;-63
2024/01/14 02:49:07;;;;;;;30.15;19.08;;;-0.20;99.90;;;;;;5014402;28;20242;-62
2024/01/14 02:51:34;;;;;;;33.25;20.40;;;-0.20;99.90;;;;;;5014747;28;20212;-62
2024/01/14 02:54:02;;;;;;;26.83;19.73;;;-0.20;99.90;;;;;;5015057;28;20214;-63
2024/01/14 02:56:29;;;;;;;30.95;17.67;;;-0.20;99.90;;;;;;5014715;28;20234;-62
2024/01/14 02:58:57;;;;;;;35.35;20.30;;;-0.20;99.90;;;;;;5014776;28;20410;-61
2024/01/14 03:01:24;;;;;;;30.55;19.45;;;-0.20;99.90;;;;;;5014636;28;20647;-62
2024/01/14 03:03:51;;;;;;;37.47;19.10;;;-0.20;99.90;;;;;;5014817;28;20361;-62
2024/01/14 03:06:18;;;;;;;37.15;19.55;;;-0.20;99.90;;;;;;5014290;28;20266;-62
2024/01/14 03:08:45;;;;;;;34.08;18.40;;;-0.30;99.90;;;;;;5014514;28;20295;-63
2024/01/14 03:11:12;;;;;;;25.77;17.83;;;-0.20;99.90;;;;;;5014264;28;20208;-62
2024/01/14 03:13:38;;;;;;;29.73;18.50;;;-0.30;99.90;;;;;;5014449;28;20207;-62
2024/01/14 03:16:07;;;;;;;28.30;19.60;;;-0.30;99.90;;;;;;5014396;28;20223;-62
2024/01/14 03:18:33;;;;;;;30.45;19.83;;;-0.30;99.90;;;;;;5013041;28;20203;-62
2024/01/14 03:21:00;;;;;;;29.33;19.73;;;-0.30;99.90;;;;;;5014240;28;20204;-62
2024/01/14 03:23:27;;;;;;;32.85;18.25;;;-0.30;99.90;;;;;;5014306;28;20207;-63
2024/01/14 03:25:54;;;;;;;24.67;17.48;;;-0.30;99.90;;;;;;5013934;28;20322;-62
2024/01/14 03:28:21;;;;;;;32.38;20.15;;;-0.30;99.90;;;;;;5014475;28;20290;-62
2024/01/14 03:30:47;;;;;;;30.65;18.50;;;-0.30;99.90;;;;;;5014118;28;20303;-62
2024/01/14 03:33:16;;;;;;;32.85;18.83;;;-0.30;99.90;;;;;;5014204;28;20294;-62
2024/01/14 03:35:42;;;;;;;31.05;18.25;;;-0.30;99.90;;;;;;5014000;28;20282;-63
2024/01/14 03:38:09;;;;;;;36.25;20.42;;;-0.30;99.90;;;;;;5013958;28;20215;-63
2024/01/14 03:40:36;;;;;;;34.03;18.85;;;-0.30;99.90;;;;;;5014147;28;20218;-62
2024/01/14 03:43:03;;;;;;;30.65;19.63;;;-0.30;99.90;;;;;;5014041;28;20218;-62
2024/01/14 03:45:30;;;;;;;35.47;19.98;;;-0.30;99.90;;;;;;5013584;28;20231;-62
2024/01/14 03:47:57;;;;;;;31.95;17.95;;;-0.30;99.90;;;;;;5013642;28;20238;-62
2024/01/14 03:50:25;;;;;;;38.00;19.50;;;-0.40;99.90;;;;;;5013820;28;20238;-63
2024/01/14 03:52:52;;;;;;;28.45;19.23;;;-0.30;99.90;;;;;;5013921;28;20208;-62
2024/01/14 03:55:19;;;;;;;31.02;19.08;;;-0.30;99.90;;;;;;5013672;28;20218;-63
2024/01/14 03:57:45;;;;;;;24.73;17.48;;;-0.30;99.90;;;;;;5013620;28;20227;-61
2024/01/14 04:00:14;;;;;;;26.25;18.45;;;-0.30;99.90;;;;;;5013465;28;20303;-62
2024/01/14 04:02:40;;;;;;;22.15;15.20;;;-0.30;99.90;;;;;;5013809;28;20223;-62
2024/01/14 04:05:08;;;;;;;28.20;17.05;;;-0.30;99.90;;;;;;5013593;28;20679;-62
2024/01/14 04:07:36;;;;;;;33.13;17.65;;;-0.30;99.90;;;;;;5013425;28;20259;-62
2024/01/14 04:10:03;;;;;;;28.85;17.33;;;-0.30;99.90;;;;;;5013203;28;20299;-61
2024/01/14 04:12:30;;;;;;;31.17;19.70;;;-0.40;99.90;;;;;;5012687;28;20210;-62
2024/01/14 04:14:57;;;;;;;41.20;19.13;;;-0.40;99.90;;;;;;5013126;28;20210;-62
2024/01/14 04:17:23;;;;;;;26.08;16.25;;;-0.40;99.90;;;;;;5013331;28;20228;-62
2024/01/14 04:19:50;;;;;;;32.10;19.95;;;-0.40;99.90;;;;;;5013109;28;20208;-62
2024/01/14 04:22:17;;;;;;;31.98;18.25;;;-0.40;99.90;;;;;;5013229;28;20306;-62
2024/01/14 04:24:45;;;;;;;29.67;16.70;;;-0.40;99.90;;;;;;5013391;28;20606;-62
2024/01/14 04:27:12;;;;;;;31.98;19.67;;;-0.40;99.90;;;;;;5012983;28;20263;-62
2024/01/14 04:29:39;;;;;;;30.15;21.30;;;-0.40;99.90;;;;;;5012617;28;20208;-62
2024/01/14 04:32:06;;;;;;;34.10;20.77;;;-0.40;99.90;;;;;;5013160;28;20214;-61
2024/01/14 04:34:34;;;;;;;28.98;18.50;;;-0.50;99.90;;;;;;5013076;28;20212;-62
2024/01/14 04:37:01;;;;;;;30.45;17.02;;;-0.50;99.90;;;;;;5012914;28;20598;-62
2024/01/14 04:39:27;;;;;;;30.23;16.95;;;-0.50;99.90;;;;;;5012973;28;20212;-62
2024/01/14 04:41:58;;;;;;;27.17;20.63;;;-0.50;99.90;;;;;;5013144;28;20211;-63
2024/01/14 04:44:24;;;;;;;34.42;18.75;;;-0.50;99.90;;;;;;5012858;28;20218;-62
2024/01/14 04:46:51;;;;;;;31.13;18.83;;;-0.50;99.90;;;;;;5012559;28;20694;-63
2024/01/14 04:49:18;;;;;;;28.42;17.50;;;-0.50;99.90;;;;;;5012718;28;20239;-62
2024/01/14 04:51:45;;;;;;;28.35;19.38;;;-0.50;99.90;;;;;;5012762;28;20702;-62
2024/01/14 04:54:12;;;;;;;33.15;18.63;;;-0.60;99.90;;;;;;5012850;28;20206;-62
2024/01/14 04:56:39;;;;;;;29.70;18.63;;;-0.60;99.90;;;;;;5012542;28;20224;-62
2024/01/14 04:59:08;;;;;;;32.08;18.85;;;-0.60;99.90;;;;;;5012561;28;20414;-62
2024/01/14 05:01:34;;;;;;;30.10;18.23;;;-0.50;99.90;;;;;;5012336;28;20208;-63
2024/01/14 05:04:02;;;;;;;28.60;17.55;;;-0.50;99.90;;;;;;5012766;28;20223;-62
2024/01/14 05:06:29;;;;;;;30.73;20.55;;;-0.50;99.90;;;;;;5012357;28;20714;-62
2024/01/14 05:08:56;;;;;;;31.88;20.30;;;-0.50;99.90;;;;;;5012395;28;20697;-62
2024/01/14 05:11:23;;;;;;;27.40;19.80;;;-0.50;99.90;;;;;;5012358;28;20214;-62
2024/01/14 05:13:50;;;;;;;27.27;19.48;;;-0.50;99.90;;;;;;5012393;28;20211;-62
2024/01/14 05:16:18;;;;;;;26.48;18.02;;;-0.50;99.90;;;;;;5012206;28;20224;-62
2024/01/14 05:18:45;;;;;;;31.08;17.92;;;-0.50;99.90;;;;;;5012443;28;20294;-62
2024/01/14 05:21:16;;;;;;;35.17;22.58;;;-0.50;99.90;;;;;;5012263;28;20215;-62
2024/01/14 05:23:42;;;;;;;30.60;20.00;;;-0.50;99.90;;;;;;5012387;28;20204;-62
2024/01/14 05:26:09;;;;;;;33.25;19.15;;;-0.60;99.90;;;;;;5011938;28;20318;-62
2024/01/14 05:28:36;;;;;;;32.92;19.58;;;-0.70;99.90;;;;;;5011977;28;20217;-62
2024/01/14 05:31:03;;;;;;;35.40;17.83;;;-0.70;99.90;;;;;;5013182;28;20200;-62
2024/01/14 05:33:31;;;;;;;37.30;19.13;;;-0.70;99.90;;;;;;5018373;28;20619;-62
2024/01/14 05:35:58;;;;;;;37.78;20.17;;;-0.70;99.90;;;;;;5016220;28;20208;-62
2024/01/14 05:38:25;;;;;;;32.15;18.98;;;-0.80;99.90;;;;;;5014061;28;20214;-62
2024/01/14 05:40:51;;;;;;;33.03;19.15;;;-0.80;99.90;;;;;;5011086;28;20239;-62
2024/01/14 05:43:18;;;;;;;31.52;18.15;;;-0.70;99.90;;;;;;5014549;28;20301;-63
2024/01/14 05:45:45;;;;;;;31.30;17.67;;;-0.70;99.90;;;;;;5015621;28;20314;-62
2024/01/14 05:48:12;;;;;;;30.00;17.15;;;-0.70;99.90;;;;;;5011907;28;20208;-62
2024/01/14 05:50:40;;;;;;;29.85;18.38;;;-0.80;99.90;;;;;;5011750;28;20215;-62
2024/01/14 05:53:07;;;;;;;28.50;18.10;;;-0.70;99.90;;;;;;5011783;28;20301;-62
2024/01/14 05:55:34;;;;;;;25.70;14.98;;;-0.70;99.90;;;;;;5012040;28;20208;-62
2024/01/14 05:58:01;;;;;;;28.70;17.95;;;-0.80;99.90;;;;;;5011606;28;20319;-62
2024/01/14 06:00:28;;;;;;;30.52;17.90;;;-0.70;99.90;;;;;;5011773;28;20338;-62
2024/01/14 06:02:55;;;;;;;27.20;17.80;;;-0.70;99.90;;;;;;5011924;28;20211;-62
2024/01/14 06:05:22;;;;;;;30.35;16.65;;;-0.80;99.90;;;;;;5011700;28;20230;-62
2024/01/14 06:07:50;;;;;;;36.40;18.75;;;-0.80;99.90;;;;;;5011469;28;20227;-62
2024/01/14 06:10:17;;;;;;;28.00;17.80;;;-0.80;99.90;;;;;;5011519;28;20207;-62
2024/01/14 06:12:43;;;;;;;32.38;15.88;;;-0.80;99.90;;;;;;5011841;28;20212;-62
2024/01/14 06:15:11;;;;;;;35.63;17.48;;;-0.90;99.90;;;;;;5011589;28;20204;-63
2024/01/14 06:17:38;;;;;;;34.20;19.38;;;-0.90;99.90;;;;;;5011517;28;20227;-62
2024/01/14 06:20:07;;;;;;;26.08;16.52;;;-0.90;99.90;;;;;;5011562;28;20218;-62
2024/01/14 06:22:33;;;;;;;25.30;15.70;;;-0.90;99.90;;;;;;5011806;28;20285;-63
2024/01/14 06:25:02;;;;;;;33.58;16.20;;;-0.90;99.90;;;;;;5011438;28;20295;-62
2024/01/14 06:27:28;;;;;;;26.45;15.60;;;-0.90;99.90;;;;;;5011313;28;20322;-62
2024/01/14 06:29:55;;;;;;;34.45;15.60;;;-0.90;99.90;;;;;;5011477;28;20593;-62
2024/01/14 06:32:22;;;;;;;23.90;15.57;;;-0.90;99.90;;;;;;5011492;28;20219;-62
2024/01/14 06:34:49;;;;;;;30.45;17.55;;;-0.80;99.90;;;;;;5011417;28;20207;-62
2024/01/14 06:37:16;;;;;;;21.33;15.50;;;-0.80;99.90;;;;;;5011322;28;20224;-63
2024/01/14 06:39:42;;;;;;;27.35;15.27;;;-0.80;99.90;;;;;;5011427;28;20222;-62
2024/01/14 06:42:11;;;;;;;35.97;15.98;;;-0.80;99.90;;;;;;5011317;28;20207;-62
2024/01/14 06:44:39;;;;;;;30.15;16.55;;;-0.80;99.90;;;;;;5018756;28;20235;-63
2024/01/14 06:47:06;;;;;;;31.45;19.73;;;-0.80;99.90;;;;;;5011155;28;20818;-63
2024/01/14 06:49:33;;;;;;;22.65;16.10;;;-0.80;99.90;;;;;;5011012;28;20746;-62
2024/01/14 06:52:00;;;;;;;28.30;16.83;;;-0.80;99.90;;;;;;5011484;28;20670;-62
2024/01/14 06:54:27;;;;;;;26.02;16.88;;;-0.80;99.90;;;;;;5015140;28;20306;-62
2024/01/14 06:56:53;;;;;;;36.78;16.52;;;-0.80;99.90;;;;;;5014953;28;20241;-62
2024/01/14 06:59:22;;;;;;;23.73;13.07;;;-0.80;99.90;;;;;;5014738;28;20210;-63
2024/01/14 07:01:49;;;;;;;25.35;13.13;;;-0.80;99.90;;;;;;5014820;28;20240;-62
2024/01/14 07:04:16;;;;;;;21.77;14.50;;;-0.90;99.90;;;;;;5015030;28;20222;-63
2024/01/14 07:06:43;;;;;;;23.05;13.68;;;-0.80;99.90;;;;;;5014569;28;20232;-61
2024/01/14 07:09:10;;;;;;;26.25;14.75;;;-0.80;99.90;;;;;;5014785;28;20222;-62
2024/01/14 07:11:37;;;;;;;25.15;14.85;;;-0.80;99.90;;;;;;5014354;28;20239;-62
2024/01/14 07:14:04;;;;;;;21.67;14.60;;;-0.80;99.90;;;;;;5014657;28;20298;-62
2024/01/14 07:16:32;;;;;;;26.33;13.80;;;-0.80;99.90;;;;;;5014340;28;20310;-62
2024/01/14 07:18:59;;;;;;;28.30;16.50;;;-0.80;99.90;;;;;;5014661;28;20220;-61
2024/01/14 07:21:26;;;;;;;18.05;12.48;;;-0.80;99.90;;;;;;5014290;28;20852;-62
2024/01/14 07:23:53;;;;;;;27.02;18.58;;;-0.80;99.90;;;;;;5014430;28;20208;-61
2024/01/14 07:26:20;;;;;;;24.13;14.73;;;-0.80;99.90;;;;;;5014174;28;20334;-62
2024/01/14 07:28:47;;;;;;;25.60;13.70;;;-0.80;99.90;;;;;;5014340;28;20291;-62
2024/01/14 07:31:16;;;;;;;33.63;16.83;;;-0.80;99.90;;;;;;5014037;28;20211;-62
2024/01/14 07:33:44;;;;;;;28.20;17.00;;;-0.90;99.90;;;;;;5013990;28;20254;-61
2024/01/14 07:36:11;;;;;;;23.10;15.38;;;-1.00;99.90;;;;;;5014269;28;20777;-62
2024/01/14 07:38:38;;;;;;;28.88;16.00;;;-1.00;99.90;;;;;;5014279;28;20754;-62
2024/01/14 07:41:06;;;;;;;25.95;14.18;;;-1.00;99.90;;;;;;5013970;28;20218;-62
2024/01/14 07:43:33;;;;;;;25.50;13.70;;;-1.00;99.90;;;;;;5014009;28;20595;-62
2024/01/14 07:46:00;;;;;;;28.85;15.95;;;-0.90;99.90;;;;;;5013807;28;20232;-62
2024/01/14 07:48:27;;;;;;;26.42;14.10;;;-0.90;99.90;;;;;;5013764;28;20298;-61
2024/01/14 07:50:55;;;;;;;27.50;13.57;;;-0.90;99.90;;;;;;5013693;28;20204;-62
2024/01/14 07:53:22;;;;;;;26.17;14.55;;;-1.00;99.90;;;;;;5013989;28;20298;-62
2024/01/14 07:55:50;;;;;;;25.58;14.77;;;-1.00;99.90;;;;;;5013678;28;20298;-60
2024/01/14 07:58:17;;;;;;;24.30;15.68;;;-0.90;99.90;;;;;;5013627;28;20211;-62
2024/01/14 08:00:45;;;;;;;22.38;13.85;;;-1.00;99.90;;;;;;5013521;28;20215;-61
2024/01/14 08:03:12;;;;;;;24.77;13.25;;;-0.90;99.90;;;;;;5013632;28;20646;-61
2024/01/14 08:05:39;;;;;;;21.05;13.05;;;-0.90;99.90;;;;;;5012888;28;20218;-62
2024/01/14 08:08:08;;;;;;;24.20;14.13;;;-0.90;99.90;;;;;;5013591;28;20208;-61
2024/01/14 08:10:36;;;;;;;22.05;12.18;;;-0.90;99.90;;;;;;5013337;28;20219;-61
2024/01/14 08:13:03;;;;;;;21.02;13.38;;;-0.90;99.90;;;;;;5010275;28;20216;-62
2024/01/14 08:15:30;;;;;;;26.50;16.27;;;-0.90;99.90;;;;;;5004185;28;20211;-62
2024/01/14 08:17:57;;;;;;;22.77;15.45;;;-1.00;99.90;;;;;;5009754;28;20220;-62
2024/01/14 08:20:25;;;;;;;32.47;16.45;;;-0.90;99.90;;;;;;5008969;28;20674;-62
2024/01/14 08:22:54;;;;;;;28.33;15.30;;;-0.90;99.90;;;;;;5006567;28;20211;-61
2024/01/14 08:25:22;;;;;;;25.65;12.73;;;-0.90;99.90;;;;;;5002721;28;20215;-61
2024/01/14 08:27:52;;;;;;;23.77;13.48;;;-0.90;99.90;;;;;;5007180;28;20231;-61
2024/01/14 08:30:19;;;;;;;21.92;12.68;;;-1.00;99.90;;;;;;5008948;28;20211;-61
2024/01/14 08:32:46;;;;;;;21.20;12.57;;;-1.00;99.90;;;;;;5005862;28;20291;-62
2024/01/14 08:35:13;;;;;;;23.67;12.25;;;-1.00;99.90;;;;;;5003417;28;20216;-62
2024/01/14 08:37:43;;;;;;;22.10;12.77;;;-1.00;99.90;;;;;;5009623;28;20220;-62
2024/01/14 08:40:12;;;;;;;31.13;14.50;;;-0.90;99.90;;;;;;5013000;28;20581;-61
2024/01/14 08:42:43;;;;;;;27.45;16.20;;;-0.90;99.90;;;;;;5012758;28;20211;-62
2024/01/14 08:45:11;;;;;;;28.13;13.75;;;-0.90;99.90;;;;;;5012878;28;20207;-62
2024/01/14 08:47:38;;;;;;;36.75;19.13;;;-0.90;99.90;;;;;;5012642;28;20242;-62
2024/01/14 08:50:06;;;;;;;29.98;17.75;;;-0.90;99.90;;;;;;5012590;28;20212;-62
2024/01/14 08:52:33;;;;;;;25.58;15.95;;;-0.90;99.90;;;;;;5012550;28;20300;-61
2024/01/14 08:55:00;;;;;;;23.40;14.30;;;-0.90;99.90;;;;;;5012652;28;20212;-61
2024/01/14 08:57:27;;;;;;;28.90;16.55;;;-0.90;99.90;;;;;;5012752;28;20223;-62
2024/01/14 08:59:56;;;;;;;24.30;14.90;;;-0.90;99.90;;;;;;5012483;28;20298;-62
2024/01/14 09:02:23;;;;;;;22.65;13.57;;;-0.90;99.90;;;;;;5012616;28;20216;-61
2024/01/14 09:04:50;;;;;;;26.05;14.10;;;-0.90;99.90;;;;;;5012516;28;20214;-61
2024/01/14 09:07:16;;;;;;;20.75;12.95;;;-0.80;99.90;;;;;;5012591;28;20679;-62
2024/01/14 09:09:43;;;;;;;19.08;11.85;;;-0.80;99.90;;;;;;5012249;28;20212;-62
2024/01/14 09:12:10;;;;;;;27.25;13.80;;;-0.80;99.90;;;;;;5012653;28;20566;-62
2024/01/14 09:14:38;;;;;;;27.15;14.55;;;-0.80;99.90;;;;;;5012408;28;20211;-62
2024/01/14 09:17:06;;;;;;;28.75;15.02;;;-0.80;99.90;;;;;;5012121;28;20223;-63
2024/01/14 09:19:33;;;;;;;32.22;15.95;;;-0.70;99.90;;;;;;5012078;28;20335;-62
2024/01/14 09:22:00;;;;;;;28.52;12.52;;;-0.60;99.90;;;;;;5007566;28;20295;-63
2024/01/14 09:24:26;;;;;;;29.67;18.17;;;-0.50;99.90;;;;;;5004252;28;20555;-62
2024/01/14 09:26:53;;;;;;;26.27;15.07;;;-0.50;99.90;;;;;;5011582;28;20242;-62
2024/01/14 09:29:20;;;;;;;34.08;17.05;;;-0.60;99.90;;;;;;5011624;28;20290;-63
2024/01/14 09:31:47;;;;;;;28.52;16.02;;;-0.60;99.90;;;;;;5011363;28;20204;-62
2024/01/14 09:34:15;;;;;;;24.73;14.05;;;-0.60;99.90;;;;;;5014918;28;20294;-62
2024/01/14 09:36:42;;;;;;;24.40;13.50;;;-0.60;99.90;;;;;;4995103;28;20327;-63
2024/01/14 09:39:10;;;;;;;27.77;15.00;;;-0.60;99.90;;;;;;5013219;28;20302;-62
2024/01/14 09:41:44;;;;;;;19.75;13.63;;;-0.60;99.90;;;;;;5000663;28;20207;-62
2024/01/14 09:44:15;;;;;;;23.92;13.95;;;-0.60;99.90;;;;;;5010014;28;20207;-62
2024/01/14 09:46:43;;;;;;;22.63;13.05;;;-0.60;99.90;;;;;;5007751;28;20725;-62
2024/01/14 09:49:11;;;;;;;22.95;14.38;;;-0.50;99.90;;;;;;5009023;28;20290;-62
2024/01/14 09:51:39;;;;;;;26.17;14.18;;;-0.50;99.90;;;;;;5005621;28;20207;-62
2024/01/14 09:54:06;;;;;;;29.88;13.68;;;-0.40;99.90;;;;;;5013690;28;20200;-62
2024/01/14 09:56:34;;;;;;;19.50;13.45;;;-0.30;99.90;;;;;;5012652;28;20230;-63
2024/01/14 09:59:03;;;;;;;25.42;12.35;;;-0.30;99.90;;;;;;5008738;28;20208;-63
2024/01/14 10:01:32;;;;;;;21.15;13.25;;;-0.30;99.90;;;;;;5006066;28;20236;-62
2024/01/14 10:04:00;;;;;;;21.83;11.88;;;-0.30;99.90;;;;;;5007991;28;20213;-62
2024/01/14 10:06:27;;;;;;;24.73;14.60;;;-0.30;99.90;;;;;;5021582;28;20330;-62
2024/01/14 10:08:56;;;;;;;23.80;13.88;;;-0.20;99.90;;;;;;5011140;28;20208;-62
2024/01/14 10:11:23;;;;;;;20.00;12.20;;;-0.20;99.90;;;;;;5011302;28;20231;-62
2024/01/14 10:13:50;;;;;;;27.70;14.10;;;-0.10;99.90;;;;;;5002445;28;20742;-62
2024/01/14 10:16:18;;;;;;;26.35;15.52;;;-0.10;99.90;;;;;;5006827;28;20234;-62
2024/01/14 10:18:45;;;;;;;25.48;14.00;;;-0.10;99.90;;;;;;5005789;28;20207;-62
2024/01/14 10:21:12;;;;;;;25.90;15.60;;;0.00;99.90;;;;;;5005789;28;20562;-62
2024/01/14 10:23:40;;;;;;;26.75;14.35;;;-0.10;99.90;;;;;;5014356;28;20208;-62
2024/01/14 10:26:09;;;;;;;23.77;15.25;;;-0.10;99.90;;;;;;5011128;28;20239;-62
2024/01/14 10:28:37;;;;;;;25.67;15.57;;;-0.10;99.90;;;;;;5013581;28;20646;-63
2024/01/14 10:31:06;;;;;;;26.98;15.60;;;-0.10;99.90;;;;;;5014965;28;20266;-62
2024/01/14 10:33:34;;;;;;;30.90;15.13;;;-0.10;99.90;;;;;;5017379;28;20262;-62
2024/01/14 10:36:01;;;;;;;26.90;15.88;;;-0.10;99.90;;;;;;5017987;28;20228;-62
2024/01/14 10:38:28;;;;;;;26.35;16.98;;;-0.10;99.90;;;;;;5015086;28;20199;-62
2024/01/14 10:40:54;;;;;;;26.13;15.25;;;-0.10;99.90;;;;;;5014448;28;20351;-63
2024/01/14 10:43:24;;;;;;;25.02;15.52;;;-0.10;99.90;;;;;;5015781;28;20214;-62
2024/01/14 10:45:52;;;;;;;22.45;13.25;;;-0.10;99.90;;;;;;5015312;28;20277;-63
2024/01/14 10:48:25;;;;;;;29.08;15.43;;;-0.10;99.90;;;;;;5017919;28;20224;-62
2024/01/14 10:50:55;;;;;;;28.73;17.10;;;-0.20;99.90;;;;;;5014179;28;20203;-62
2024/01/14 10:53:26;;;;;;;25.98;17.17;;;-0.20;99.90;;;;;;5008291;28;20208;-62
2024/01/14 10:56:00;;;;;;;27.77;15.77;;;-0.20;99.90;;;;;;5018009;28;20211;-62
2024/01/14 10:58:31;;;;;;;20.48;14.73;;;-0.20;99.90;;;;;;5009511;28;20696;-62
2024/01/14 11:01:00;;;;;;;31.70;15.93;;;-0.10;99.90;;;;;;5014423;28;20203;-62
2024/01/14 11:03:29;;;;;;;21.05;14.25;;;-0.10;99.90;;;;;;5014719;28;20212;-63
2024/01/14 11:05:56;;;;;;;28.17;18.00;;;-0.10;99.90;;;;;;5020205;28;20203;-62
2024/01/14 11:08:24;;;;;;;25.90;16.70;;;0.00;99.90;;;;;;5007448;28;20232;-62
2024/01/14 11:10:52;;;;;;;27.52;17.15;;;0.00;99.90;;;;;;5013985;28;20291;-62
2024/01/14 11:13:25;;;;;;;31.52;17.60;;;0.00;99.90;;;;;;5012592;28;20250;-63
2024/01/14 11:16:00;;;;;;;27.33;16.10;;;0.00;99.90;;;;;;5010082;28;20235;-62
2024/01/14 11:18:32;;;;;;;29.50;17.95;;;0.00;99.90;;;;;;5009003;28;20198;-62
2024/01/14 11:21:09;;;;;;;35.25;15.90;;;0.00;99.90;;;;;;5014030;28;20215;-62
2024/01/14 11:23:36;;;;;;;21.13;15.45;;;0.10;99.90;;;;;;5014172;28;20211;-62
2024/01/14 11:26:03;;;;;;;25.42;15.30;;;0.10;99.90;;;;;;5013818;28;20267;-62
2024/01/14 11:28:31;;;;;;;31.23;16.17;;;0.10;99.90;;;;;;5013734;28;20659;-62
2024/01/14 11:31:01;;;;;;;27.73;17.05;;;0.10;99.90;;;;;;5013969;28;20634;-62
2024/01/14 11:33:38;;;;;;;25.45;15.35;;;0.10;99.90;;;;;;5013492;28;20208;-62
2024/01/14 11:36:07;;;;;;;27.38;16.50;;;0.20;99.90;;;;;;5013500;28;20227;-62
2024/01/14 11:38:35;;;;;;;22.25;13.52;;;0.20;99.90;;;;;;5013001;28;20728;-62
2024/01/14 11:41:25;;;;;;;29.75;16.80;;;0.30;99.90;;;;;;5012548;28;20262;-62
2024/01/14 11:43:57;;;;;;;24.73;15.43;;;0.30;99.90;;;;;;5013650;28;20215;-61
2024/01/14 11:46:40;;;;;;;23.40;15.43;;;0.40;99.90;;;;;;5013200;28;20735;-62
2024/01/14 11:49:09;;;;;;;26.13;18.67;;;0.30;99.90;;;;;;5013469;28;20254;-62
2024/01/14 11:51:40;;;;;;;25.90;16.05;;;0.40;99.90;;;;;;5014105;28;20680;-62
2024/01/14 11:54:09;;;;;;;23.23;16.13;;;0.40;99.90;;;;;;5012242;28;20204;-62
2024/01/14 11:56:36;;;;;;;26.77;16.58;;;0.40;99.90;;;;;;5012752;28;20234;-63
2024/01/14 11:59:07;;;;;;;32.33;18.33;;;0.40;99.90;;;;;;5015717;28;20203;-62
2024/01/14 12:01:34;;;;;;;37.35;21.20;;;0.40;99.90;;;;;;5012925;28;20726;-62
2024/01/14 12:04:03;;;;;;;21.15;14.73;;;0.40;99.90;;;;;;5013014;28;20610;-62
2024/01/14 12:06:37;;;;;;;27.90;16.70;;;0.40;99.90;;;;;;5013446;28;20667;-62
2024/01/14 12:09:04;;;;;;;34.45;18.83;;;0.40;99.90;;;;;;5015197;28;20310;-63
2024/01/14 12:11:31;;;;;;;21.98;15.15;;;0.40;99.90;;;;;;5009481;28;20208;-62
2024/01/14 12:13:58;;;;;;;36.10;16.33;;;0.40;99.90;;;;;;5004996;28;20219;-62
2024/01/14 12:16:25;;;;;;;26.00;17.75;;;0.40;99.90;;;;;;5016129;28;20227;-62
2024/01/14 12:18:52;;;;;;;32.65;17.65;;;0.40;99.90;;;;;;5014736;28;20203;-62
2024/01/14 12:21:21;;;;;;;26.10;16.02;;;0.50;99.90;;;;;;5013656;28;20210;-63
2024/01/14 12:23:48;;;;;;;22.92;16.63;;;0.50;99.90;;;;;;5017079;28;20795;-63
2024/01/14 12:26:15;;;;;;;25.70;15.35;;;0.50;99.90;;;;;;5013921;28;20235;-62
2024/01/14 12:28:42;;;;;;;30.65;15.05;;;0.50;99.90;;;;;;5018014;28;20234;-62
2024/01/14 12:31:09;;;;;;;26.73;18.40;;;0.50;99.90;;;;;;5015327;28;20213;-63
2024/01/14 12:33:36;;;;;;;32.65;16.65;;;0.50;99.90;;;;;;5014970;28;20254;-62